sensor_id;sensor_type;location;lat;lon;timestamp;temperature;humidity
32348;DHT22;18821;44.800;10.326;2023-04-08T00:02:18;9.00;1.00
32348;DHT22;18821;44.800;10.326;2023-04-08T00:04:44;9.00;1.00
32348;DHT22;18821;44.800;10.326;2023-04-08T00:07:10;9.10;1.00
32348;DHT22;18821;44.800;10.326;2023-04-08T00:09:36;9.20;1.00
32348;DHT22;18821;44.800;10.326;2023-04-08T00:12:03;9.20;1.00
32348;DHT22;18821;44.800;10.326;2023-04-08T00:14:29;9.20;1.00
32348;DHT22;18821;44.800;10.326;2023-04-08T00:16:55;9.30;1.00
32348;DHT22;18821;44.800;10.326;2023-04-08T00:19:21;9.30;1.00
32348;DHT22;18821;44.800;10.326;2023-04-08T00:21:47;9.30;1.00
32348;DHT22;18821;44.800;10.326;2023-04-08T00:24:13;9.30;1.00
32348;DHT22;18821;44.800;10.326;2023-04-08T00:26:39;9.30;1.00
32348;DHT22;18821;44.800;10.326;2023-04-08T00:29:05;9.30;1.00
32348;DHT22;18821;44.800;10.326;2023-04-08T00:31:31;9.30;1.00
32348;DHT22;18821;44.800;10.326;2023-04-08T00:33:57;9.30;1.00
32348;DHT22;18821;44.800;10.326;2023-04-08T00:36:23;9.30;1.00
32348;DHT22;18821;44.800;10.326;2023-04-08T00:38:51;9.30;1.00
32348;DHT22;18821;44.800;10.326;2023-04-08T00:41:17;9.20;1.00
32348;DHT22;18821;44.800;10.326;2023-04-08T00:43:43;9.20;1.00
32348;DHT22;18821;44.800;10.326;2023-04-08T00:46:09;9.20;1.00
32348;DHT22;18821;44.800;10.326;2023-04-08T00:48:35;9.20;1.00
32348;DHT22;18821;44.800;10.326;2023-04-08T00:51:02;9.20;1.00
32348;DHT22;18821;44.800;10.326;2023-04-08T00:53:29;9.20;1.00
32348;DHT22;18821;44.800;10.326;2023-04-08T00:55:56;9.30;1.00
32348;DHT22;18821;44.800;10.326;2023-04-08T00:58:22;9.30;1.00
32348;DHT22;18821;44.800;10.326;2023-04-08T01:00:54;9.30;1.00
32348;DHT22;18821;44.800;10.326;2023-04-08T01:08:54;9.20;1.00
32348;DHT22;18821;44.800;10.326;2023-04-08T01:11:20;9.20;1.00
32348;DHT22;18821;44.800;10.326;2023-04-08T01:13:48;9.10;1.00
32348;DHT22;18821;44.800;10.326;2023-04-08T01:16:16;9.10;1.00
32348;DHT22;18821;44.800;10.326;2023-04-08T01:18:44;9.10;1.00
32348;DHT22;18821;44.800;10.326;2023-04-08T01:21:11;9.10;1.00
32348;DHT22;18821;44.800;10.326;2023-04-08T01:24:00;9.10;1.00
32348;DHT22;18821;44.800;10.326;2023-04-08T01:26:31;9.10;1.00
32348;DHT22;18821;44.800;10.326;2023-04-08T01:29:00;9.20;1.00
32348;DHT22;18821;44.800;10.326;2023-04-08T01:31:26;9.20;1.00
32348;DHT22;18821;44.800;10.326;2023-04-08T01:33:53;9.30;1.00
32348;DHT22;18821;44.800;10.326;2023-04-08T01:36:22;9.30;1.00
32348;DHT22;18821;44.800;10.326;2023-04-08T01:38:49;9.30;1.00
32348;DHT22;18821;44.800;10.326;2023-04-08T01:41:17;9.30;1.00
32348;DHT22;18821;44.800;10.326;2023-04-08T01:43:43;9.40;1.00
32348;DHT22;18821;44.800;10.326;2023-04-08T01:46:11;9.30;1.00
32348;DHT22;18821;44.800;10.326;2023-04-08T01:48:39;9.30;1.00
32348;DHT22;18821;44.800;10.326;2023-04-08T01:51:05;9.30;1.00
32348;DHT22;18821;44.800;10.326;2023-04-08T01:53:32;9.30;1.00
32348;DHT22;18821;44.800;10.326;2023-04-08T01:56:08;9.20;1.00
32348;DHT22;18821;44.800;10.326;2023-04-08T01:58:38;9.20;1.00
32348;DHT22;18821;44.800;10.326;2023-04-08T02:01:10;9.20;1.00
32348;DHT22;18821;44.800;10.326;2023-04-08T02:03:37;9.10;1.00
32348;DHT22;18821;44.800;10.326;2023-04-08T02:06:03;9.10;1.00
32348;DHT22;18821;44.800;10.326;2023-04-08T02:08:31;9.10;1.00
32348;DHT22;18821;44.800;10.326;2023-04-08T02:10:58;9.10;1.00
32348;DHT22;18821;44.800;10.326;2023-04-08T02:13:23;9.00;1.00
32348;DHT22;18821;44.800;10.326;2023-04-08T02:15:54;9.00;1.00
32348;DHT22;18821;44.800;10.326;2023-04-08T02:18:24;9.00;1.00
32348;DHT22;18821;44.800;10.326;2023-04-08T02:21:26;9.00;1.00
32348;DHT22;18821;44.800;10.326;2023-04-08T02:23:58;9.00;1.00
32348;DHT22;18821;44.800;10.326;2023-04-08T02:26:28;8.90;1.00
32348;DHT22;18821;44.800;10.326;2023-04-08T02:28:55;8.90;1.00
32348;DHT22;18821;44.800;10.326;2023-04-08T02:31:22;8.80;2.00
32348;DHT22;18821;44.800;10.326;2023-04-08T02:33:50;8.80;1.00
32348;DHT22;18821;44.800;10.326;2023-04-08T02:36:17;8.80;1.00
32348;DHT22;18821;44.800;10.326;2023-04-08T02:38:50;8.80;1.10
32348;DHT22;18821;44.800;10.326;2023-04-08T02:41:16;8.80;2.20
32348;DHT22;18821;44.800;10.326;2023-04-08T02:43:42;8.70;5.30
32348;DHT22;18821;44.800;10.326;2023-04-08T02:46:09;8.70;7.60
32348;DHT22;18821;44.800;10.326;2023-04-08T02:48:36;8.70;9.40
32348;DHT22;18821;44.800;10.326;2023-04-08T02:51:02;8.70;10.40
32348;DHT22;18821;44.800;10.326;2023-04-08T02:53:28;8.70;10.60
32348;DHT22;18821;44.800;10.326;2023-04-08T02:55:54;8.70;8.80
32348;DHT22;18821;44.800;10.326;2023-04-08T02:58:20;8.70;9.90
32348;DHT22;18821;44.800;10.326;2023-04-08T03:00:45;8.70;12.00
32348;DHT22;18821;44.800;10.326;2023-04-08T03:03:12;8.70;14.60
32348;DHT22;18821;44.800;10.326;2023-04-08T03:05:37;8.60;16.90
32348;DHT22;18821;44.800;10.326;2023-04-08T03:08:03;8.60;17.90
32348;DHT22;18821;44.800;10.326;2023-04-08T03:10:31;8.60;19.10
32348;DHT22;18821;44.800;10.326;2023-04-08T03:12:57;8.60;18.50
32348;DHT22;18821;44.800;10.326;2023-04-08T03:15:23;8.60;19.40
32348;DHT22;18821;44.800;10.326;2023-04-08T03:17:48;8.60;19.80
32348;DHT22;18821;44.800;10.326;2023-04-08T03:20:14;8.60;21.60
32348;DHT22;18821;44.800;10.326;2023-04-08T03:22:40;8.60;20.80
32348;DHT22;18821;44.800;10.326;2023-04-08T03:25:06;8.60;22.00
32348;DHT22;18821;44.800;10.326;2023-04-08T03:27:32;8.60;21.20
32348;DHT22;18821;44.800;10.326;2023-04-08T03:29:58;8.60;22.30
32348;DHT22;18821;44.800;10.326;2023-04-08T03:32:24;8.60;21.00
32348;DHT22;18821;44.800;10.326;2023-04-08T03:34:50;8.60;19.80
32348;DHT22;18821;44.800;10.326;2023-04-08T03:37:17;8.50;23.50
32348;DHT22;18821;44.800;10.326;2023-04-08T03:39:43;8.50;23.80
32348;DHT22;18821;44.800;10.326;2023-04-08T03:42:09;8.40;26.20
32348;DHT22;18821;44.800;10.326;2023-04-08T03:44:35;8.40;26.80
32348;DHT22;18821;44.800;10.326;2023-04-08T03:47:01;8.40;28.60
32348;DHT22;18821;44.800;10.326;2023-04-08T03:49:26;8.40;29.10
32348;DHT22;18821;44.800;10.326;2023-04-08T03:51:52;8.40;26.20
32348;DHT22;18821;44.800;10.326;2023-04-08T03:54:18;8.40;27.10
32348;DHT22;18821;44.800;10.326;2023-04-08T03:56:44;8.30;28.70
32348;DHT22;18821;44.800;10.326;2023-04-08T03:59:10;8.30;29.90
32348;DHT22;18821;44.800;10.326;2023-04-08T04:01:36;8.20;30.80
32348;DHT22;18821;44.800;10.326;2023-04-08T04:04:02;8.20;31.80
32348;DHT22;18821;44.800;10.326;2023-04-08T04:06:28;8.20;33.40
32348;DHT22;18821;44.800;10.326;2023-04-08T04:08:53;8.10;34.60
32348;DHT22;18821;44.800;10.326;2023-04-08T04:11:20;8.20;34.50
32348;DHT22;18821;44.800;10.326;2023-04-08T04:13:47;8.20;34.40
32348;DHT22;18821;44.800;10.326;2023-04-08T04:16:13;8.30;34.00
32348;DHT22;18821;44.800;10.326;2023-04-08T04:18:39;8.30;32.60
32348;DHT22;18821;44.800;10.326;2023-04-08T04:21:05;8.30;31.10
32348;DHT22;18821;44.800;10.326;2023-04-08T04:23:32;8.30;29.70
32348;DHT22;18821;44.800;10.326;2023-04-08T04:25:58;8.40;29.40
32348;DHT22;18821;44.800;10.326;2023-04-08T04:28:24;8.40;27.50
32348;DHT22;18821;44.800;10.326;2023-04-08T04:30:50;8.40;26.80
32348;DHT22;18821;44.800;10.326;2023-04-08T04:33:15;8.40;25.50
32348;DHT22;18821;44.800;10.326;2023-04-08T04:35:41;8.40;24.50
32348;DHT22;18821;44.800;10.326;2023-04-08T04:38:07;8.40;24.60
32348;DHT22;18821;44.800;10.326;2023-04-08T04:40:37;8.40;24.70
32348;DHT22;18821;44.800;10.326;2023-04-08T04:43:04;8.40;25.20
32348;DHT22;18821;44.800;10.326;2023-04-08T04:45:30;8.40;26.00
32348;DHT22;18821;44.800;10.326;2023-04-08T04:47:56;8.30;27.60
32348;DHT22;18821;44.800;10.326;2023-04-08T04:50:22;8.30;30.40
32348;DHT22;18821;44.800;10.326;2023-04-08T04:52:48;8.30;32.20
32348;DHT22;18821;44.800;10.326;2023-04-08T04:55:14;8.20;34.60
32348;DHT22;18821;44.800;10.326;2023-04-08T04:57:40;8.20;35.80
32348;DHT22;18821;44.800;10.326;2023-04-08T05:00:07;8.10;36.10
32348;DHT22;18821;44.800;10.326;2023-04-08T05:02:33;8.20;38.00
32348;DHT22;18821;44.800;10.326;2023-04-08T05:04:59;8.10;37.60
32348;DHT22;18821;44.800;10.326;2023-04-08T05:07:25;8.10;39.50
32348;DHT22;18821;44.800;10.326;2023-04-08T05:09:52;8.20;40.10
32348;DHT22;18821;44.800;10.326;2023-04-08T05:12:18;8.20;38.30
32348;DHT22;18821;44.800;10.326;2023-04-08T05:14:45;8.20;38.00
32348;DHT22;18821;44.800;10.326;2023-04-08T05:17:11;8.30;36.20
32348;DHT22;18821;44.800;10.326;2023-04-08T05:19:37;8.40;34.00
32348;DHT22;18821;44.800;10.326;2023-04-08T05:22:03;8.40;32.80
32348;DHT22;18821;44.800;10.326;2023-04-08T05:24:28;8.50;31.60
32348;DHT22;18821;44.800;10.326;2023-04-08T05:26:54;8.50;28.90
32348;DHT22;18821;44.800;10.326;2023-04-08T05:29:22;8.60;27.50
32348;DHT22;18821;44.800;10.326;2023-04-08T05:31:48;8.60;25.10
32348;DHT22;18821;44.800;10.326;2023-04-08T05:34:14;8.70;22.20
32348;DHT22;18821;44.800;10.326;2023-04-08T05:36:43;8.80;22.10
32348;DHT22;18821;44.800;10.326;2023-04-08T05:39:09;8.90;17.00
32348;DHT22;18821;44.800;10.326;2023-04-08T05:41:35;9.00;14.60
32348;DHT22;18821;44.800;10.326;2023-04-08T05:44:01;9.10;7.40
32348;DHT22;18821;44.800;10.326;2023-04-08T05:46:27;9.20;3.70
32348;DHT22;18821;44.800;10.326;2023-04-08T05:48:53;9.40;2.50
32348;DHT22;18821;44.800;10.326;2023-04-08T05:51:19;9.60;1.00
32348;DHT22;18821;44.800;10.326;2023-04-08T05:53:45;9.80;1.00
32348;DHT22;18821;44.800;10.326;2023-04-08T05:56:11;10.00;1.00
32348;DHT22;18821;44.800;10.326;2023-04-08T05:58:37;10.00;1.00
32348;DHT22;18821;44.800;10.326;2023-04-08T06:01:03;10.20;1.00
32348;DHT22;18821;44.800;10.326;2023-04-08T06:03:31;10.20;1.00
32348;DHT22;18821;44.800;10.326;2023-04-08T06:05:57;10.20;1.00
32348;DHT22;18821;44.800;10.326;2023-04-08T06:08:23;10.20;1.00
32348;DHT22;18821;44.800;10.326;2023-04-08T06:10:50;10.20;1.00
32348;DHT22;18821;44.800;10.326;2023-04-08T06:13:16;10.60;1.00
32348;DHT22;18821;44.800;10.326;2023-04-08T06:15:42;11.10;1.00
32348;DHT22;18821;44.800;10.326;2023-04-08T06:18:08;11.20;1.00
32348;DHT22;18821;44.800;10.326;2023-04-08T06:20:34;11.40;1.00
32348;DHT22;18821;44.800;10.326;2023-04-08T06:23:00;11.50;1.00
32348;DHT22;18821;44.800;10.326;2023-04-08T06:25:26;11.30;1.00
32348;DHT22;18821;44.800;10.326;2023-04-08T06:27:52;11.50;1.00
32348;DHT22;18821;44.800;10.326;2023-04-08T06:30:18;11.40;1.00
32348;DHT22;18821;44.800;10.326;2023-04-08T06:32:45;11.10;1.00
32348;DHT22;18821;44.800;10.326;2023-04-08T06:35:12;11.20;1.00
32348;DHT22;18821;44.800;10.326;2023-04-08T06:37:38;11.10;1.00
32348;DHT22;18821;44.800;10.326;2023-04-08T06:40:05;10.80;1.00
32348;DHT22;18821;44.800;10.326;2023-04-08T06:42:31;10.40;1.00
32348;DHT22;18821;44.800;10.326;2023-04-08T06:45:14;10.20;1.00
32348;DHT22;18821;44.800;10.326;2023-04-08T06:47:40;10.00;1.00
32348;DHT22;18821;44.800;10.326;2023-04-08T06:50:06;9.90;1.00
32348;DHT22;18821;44.800;10.326;2023-04-08T06:52:32;10.00;1.00
32348;DHT22;18821;44.800;10.326;2023-04-08T06:54:58;10.20;1.00
32348;DHT22;18821;44.800;10.326;2023-04-08T06:57:24;10.30;1.00
32348;DHT22;18821;44.800;10.326;2023-04-08T06:59:50;10.10;1.00
32348;DHT22;18821;44.800;10.326;2023-04-08T07:02:17;9.90;1.00
32348;DHT22;18821;44.800;10.326;2023-04-08T07:04:43;10.00;1.00
32348;DHT22;18821;44.800;10.326;2023-04-08T07:07:09;10.20;1.00
32348;DHT22;18821;44.800;10.326;2023-04-08T07:09:35;10.30;1.00
32348;DHT22;18821;44.800;10.326;2023-04-08T07:12:02;10.40;1.00
32348;DHT22;18821;44.800;10.326;2023-04-08T07:14:29;10.50;1.00
32348;DHT22;18821;44.800;10.326;2023-04-08T07:16:55;10.40;1.00
32348;DHT22;18821;44.800;10.326;2023-04-08T07:19:21;10.60;1.00
32348;DHT22;18821;44.800;10.326;2023-04-08T07:21:49;10.40;1.00
32348;DHT22;18821;44.800;10.326;2023-04-08T07:24:15;10.50;1.00
32348;DHT22;18821;44.800;10.326;2023-04-08T07:26:41;10.80;1.00
32348;DHT22;18821;44.800;10.326;2023-04-08T07:29:07;11.10;1.00
32348;DHT22;18821;44.800;10.326;2023-04-08T07:31:33;11.30;1.00
32348;DHT22;18821;44.800;10.326;2023-04-08T07:33:59;11.30;1.00
32348;DHT22;18821;44.800;10.326;2023-04-08T07:36:25;11.00;1.00
32348;DHT22;18821;44.800;10.326;2023-04-08T07:38:51;10.90;1.00
32348;DHT22;18821;44.800;10.326;2023-04-08T07:41:17;10.90;1.00
32348;DHT22;18821;44.800;10.326;2023-04-08T07:43:43;11.00;1.00
32348;DHT22;18821;44.800;10.326;2023-04-08T07:46:08;10.80;1.00
32348;DHT22;18821;44.800;10.326;2023-04-08T07:48:35;10.90;1.00
32348;DHT22;18821;44.800;10.326;2023-04-08T07:51:05;10.90;1.00
32348;DHT22;18821;44.800;10.326;2023-04-08T07:53:31;10.90;1.00
32348;DHT22;18821;44.800;10.326;2023-04-08T07:55:58;11.00;1.00
32348;DHT22;18821;44.800;10.326;2023-04-08T07:58:24;11.10;1.00
32348;DHT22;18821;44.800;10.326;2023-04-08T08:00:50;11.40;1.00
32348;DHT22;18821;44.800;10.326;2023-04-08T08:03:16;11.30;1.00
32348;DHT22;18821;44.800;10.326;2023-04-08T08:05:42;11.50;1.00
32348;DHT22;18821;44.800;10.326;2023-04-08T08:08:09;11.40;1.00
32348;DHT22;18821;44.800;10.326;2023-04-08T08:10:38;11.50;1.00
32348;DHT22;18821;44.800;10.326;2023-04-08T08:13:04;11.40;1.00
32348;DHT22;18821;44.800;10.326;2023-04-08T08:15:31;11.40;1.00
32348;DHT22;18821;44.800;10.326;2023-04-08T08:17:57;11.60;1.00
32348;DHT22;18821;44.800;10.326;2023-04-08T08:20:23;11.60;1.00
32348;DHT22;18821;44.800;10.326;2023-04-08T08:22:49;11.80;1.00
32348;DHT22;18821;44.800;10.326;2023-04-08T08:25:15;12.20;1.00
32348;DHT22;18821;44.800;10.326;2023-04-08T08:27:42;12.60;1.00
32348;DHT22;18821;44.800;10.326;2023-04-08T08:30:08;12.80;1.00
32348;DHT22;18821;44.800;10.326;2023-04-08T08:32:35;12.80;1.00
32348;DHT22;18821;44.800;10.326;2023-04-08T08:35:02;12.50;1.00
32348;DHT22;18821;44.800;10.326;2023-04-08T08:37:28;12.60;1.00
32348;DHT22;18821;44.800;10.326;2023-04-08T08:39:54;12.60;1.00
32348;DHT22;18821;44.800;10.326;2023-04-08T08:42:24;12.70;1.00
32348;DHT22;18821;44.800;10.326;2023-04-08T08:44:49;12.80;1.00
32348;DHT22;18821;44.800;10.326;2023-04-08T08:47:16;13.10;1.00
32348;DHT22;18821;44.800;10.326;2023-04-08T08:49:43;12.90;1.00
32348;DHT22;18821;44.800;10.326;2023-04-08T08:52:14;13.10;99.90
32348;DHT22;18821;44.800;10.326;2023-04-08T08:54:40;13.00;99.90
32348;DHT22;18821;44.800;10.326;2023-04-08T08:57:16;13.10;99.90
32348;DHT22;18821;44.800;10.326;2023-04-08T08:59:47;13.40;99.90
32348;DHT22;18821;44.800;10.326;2023-04-08T09:02:27;13.30;99.90
32348;DHT22;18821;44.800;10.326;2023-04-08T09:05:03;13.30;99.90
32348;DHT22;18821;44.800;10.326;2023-04-08T09:07:31;13.10;99.90
32348;DHT22;18821;44.800;10.326;2023-04-08T09:10:00;13.20;99.90
32348;DHT22;18821;44.800;10.326;2023-04-08T09:12:26;12.90;99.90
32348;DHT22;18821;44.800;10.326;2023-04-08T09:15:08;13.40;99.90
32348;DHT22;18821;44.800;10.326;2023-04-08T09:17:37;13.20;1.00
32348;DHT22;18821;44.800;10.326;2023-04-08T09:23:00;13.50;1.00
32348;DHT22;18821;44.800;10.326;2023-04-08T09:25:28;13.60;1.00
32348;DHT22;18821;44.800;10.326;2023-04-08T09:27:54;13.60;1.00
32348;DHT22;18821;44.800;10.326;2023-04-08T09:30:22;14.00;1.00
32348;DHT22;18821;44.800;10.326;2023-04-08T09:32:56;14.10;99.90
32348;DHT22;18821;44.800;10.326;2023-04-08T09:35:23;14.00;1.00
32348;DHT22;18821;44.800;10.326;2023-04-08T09:37:49;14.00;99.90
32348;DHT22;18821;44.800;10.326;2023-04-08T09:40:16;14.00;99.90
32348;DHT22;18821;44.800;10.326;2023-04-08T09:42:47;13.90;99.90
32348;DHT22;18821;44.800;10.326;2023-04-08T09:45:16;14.30;99.90
32348;DHT22;18821;44.800;10.326;2023-04-08T09:47:57;14.20;64.30
32348;DHT22;18821;44.800;10.326;2023-04-08T09:50:30;14.30;99.90
32348;DHT22;18821;44.800;10.326;2023-04-08T09:53:13;14.70;99.90
32348;DHT22;18821;44.800;10.326;2023-04-08T09:55:48;15.00;99.90
32348;DHT22;18821;44.800;10.326;2023-04-08T09:58:19;14.50;99.90
32348;DHT22;18821;44.800;10.326;2023-04-08T10:00:48;14.20;99.90
32348;DHT22;18821;44.800;10.326;2023-04-08T10:03:26;14.40;99.90
32348;DHT22;18821;44.800;10.326;2023-04-08T10:05:53;14.40;1.00
32348;DHT22;18821;44.800;10.326;2023-04-08T10:08:24;14.80;99.90
32348;DHT22;18821;44.800;10.326;2023-04-08T10:10:53;15.00;99.90
32348;DHT22;18821;44.800;10.326;2023-04-08T10:13:19;15.30;99.90
32348;DHT22;18821;44.800;10.326;2023-04-08T10:15:46;15.60;1.00
32348;DHT22;18821;44.800;10.326;2023-04-08T10:23:05;14.40;1.00
32348;DHT22;18821;44.800;10.326;2023-04-08T10:25:35;14.60;1.00
32348;DHT22;18821;44.800;10.326;2023-04-08T10:30:43;15.00;1.00
32348;DHT22;18821;44.800;10.326;2023-04-08T10:33:11;15.20;1.00
32348;DHT22;18821;44.800;10.326;2023-04-08T10:35:41;15.50;1.00
32348;DHT22;18821;44.800;10.326;2023-04-08T10:38:08;15.50;99.90
32348;DHT22;18821;44.800;10.326;2023-04-08T10:40:38;14.90;44.90
32348;DHT22;18821;44.800;10.326;2023-04-08T10:43:06;15.30;25.40
32348;DHT22;18821;44.800;10.326;2023-04-08T10:45:33;15.80;1.00
32348;DHT22;18821;44.800;10.326;2023-04-08T10:51:04;14.90;1.00
32348;DHT22;18821;44.800;10.326;2023-04-08T10:53:31;15.20;1.00
32348;DHT22;18821;44.800;10.326;2023-04-08T10:56:10;15.70;1.00
32348;DHT22;18821;44.800;10.326;2023-04-08T10:58:50;15.50;99.90
32348;DHT22;18821;44.800;10.326;2023-04-08T11:01:17;15.80;1.00
32348;DHT22;18821;44.800;10.326;2023-04-08T11:03:43;15.60;1.00
32348;DHT22;18821;44.800;10.326;2023-04-08T11:06:10;15.20;1.00
32348;DHT22;18821;44.800;10.326;2023-04-08T11:08:37;15.40;99.90
32348;DHT22;18821;44.800;10.326;2023-04-08T11:11:04;15.70;99.90
32348;DHT22;18821;44.800;10.326;2023-04-08T11:13:45;15.30;1.00
32348;DHT22;18821;44.800;10.326;2023-04-08T11:16:11;15.30;1.00
32348;DHT22;18821;44.800;10.326;2023-04-08T11:18:39;15.40;1.00
32348;DHT22;18821;44.800;10.326;2023-04-08T11:21:09;15.60;1.00
32348;DHT22;18821;44.800;10.326;2023-04-08T11:23:36;16.20;99.90
32348;DHT22;18821;44.800;10.326;2023-04-08T11:26:02;16.60;99.90
32348;DHT22;18821;44.800;10.326;2023-04-08T11:28:29;16.90;99.90
32348;DHT22;18821;44.800;10.326;2023-04-08T11:30:55;16.90;99.90
32348;DHT22;18821;44.800;10.326;2023-04-08T11:33:25;16.20;99.90
32348;DHT22;18821;44.800;10.326;2023-04-08T11:35:54;16.10;99.90
32348;DHT22;18821;44.800;10.326;2023-04-08T11:38:22;16.10;99.90
32348;DHT22;18821;44.800;10.326;2023-04-08T11:41:07;16.20;99.90
32348;DHT22;18821;44.800;10.326;2023-04-08T11:43:33;16.10;93.10
32348;DHT22;18821;44.800;10.326;2023-04-08T11:46:09;16.20;1.00
32348;DHT22;18821;44.800;10.326;2023-04-08T11:48:36;16.30;1.00
32348;DHT22;18821;44.800;10.326;2023-04-08T11:51:04;16.40;1.00
32348;DHT22;18821;44.800;10.326;2023-04-08T11:53:30;16.70;1.00
32348;DHT22;18821;44.800;10.326;2023-04-08T11:55:56;16.20;1.00
32348;DHT22;18821;44.800;10.326;2023-04-08T11:58:22;15.90;1.00
32348;DHT22;18821;44.800;10.326;2023-04-08T12:00:48;15.70;1.00
32348;DHT22;18821;44.800;10.326;2023-04-08T12:03:15;15.90;1.00
32348;DHT22;18821;44.800;10.326;2023-04-08T12:05:41;16.30;1.00
32348;DHT22;18821;44.800;10.326;2023-04-08T12:08:07;16.70;1.00
32348;DHT22;18821;44.800;10.326;2023-04-08T12:10:33;16.90;1.00
32348;DHT22;18821;44.800;10.326;2023-04-08T12:12:59;16.50;1.00
32348;DHT22;18821;44.800;10.326;2023-04-08T12:15:25;16.20;1.00
32348;DHT22;18821;44.800;10.326;2023-04-08T12:17:51;16.40;1.00
32348;DHT22;18821;44.800;10.326;2023-04-08T12:20:17;16.80;1.00
32348;DHT22;18821;44.800;10.326;2023-04-08T12:22:43;17.20;1.00
32348;DHT22;18821;44.800;10.326;2023-04-08T12:25:09;16.70;99.90
32348;DHT22;18821;44.800;10.326;2023-04-08T12:27:35;16.60;1.00
32348;DHT22;18821;44.800;10.326;2023-04-08T12:30:02;16.80;1.00
32348;DHT22;18821;44.800;10.326;2023-04-08T12:32:28;17.00;1.00
32348;DHT22;18821;44.800;10.326;2023-04-08T12:34:54;16.90;1.00
32348;DHT22;18821;44.800;10.326;2023-04-08T12:37:20;17.00;1.00
32348;DHT22;18821;44.800;10.326;2023-04-08T12:39:46;17.30;99.90
32348;DHT22;18821;44.800;10.326;2023-04-08T12:42:13;17.60;99.90
32348;DHT22;18821;44.800;10.326;2023-04-08T12:44:39;17.70;99.90
32348;DHT22;18821;44.800;10.326;2023-04-08T12:47:05;17.90;99.90
32348;DHT22;18821;44.800;10.326;2023-04-08T12:49:31;18.20;99.90
32348;DHT22;18821;44.800;10.326;2023-04-08T12:51:57;18.10;99.90
32348;DHT22;18821;44.800;10.326;2023-04-08T12:54:22;18.10;99.90
32348;DHT22;18821;44.800;10.326;2023-04-08T12:56:48;17.90;99.90
32348;DHT22;18821;44.800;10.326;2023-04-08T12:59:15;17.90;99.90
32348;DHT22;18821;44.800;10.326;2023-04-08T13:01:41;17.80;99.90
32348;DHT22;18821;44.800;10.326;2023-04-08T13:04:07;17.80;99.90
32348;DHT22;18821;44.800;10.326;2023-04-08T13:06:32;17.40;99.90
32348;DHT22;18821;44.800;10.326;2023-04-08T13:08:58;17.40;99.90
32348;DHT22;18821;44.800;10.326;2023-04-08T13:11:24;17.70;99.90
32348;DHT22;18821;44.800;10.326;2023-04-08T13:13:50;17.80;99.90
32348;DHT22;18821;44.800;10.326;2023-04-08T13:16:16;17.80;99.90
32348;DHT22;18821;44.800;10.326;2023-04-08T13:18:42;18.00;99.90
32348;DHT22;18821;44.800;10.326;2023-04-08T13:21:08;18.10;99.90
32348;DHT22;18821;44.800;10.326;2023-04-08T13:23:34;18.00;99.90
32348;DHT22;18821;44.800;10.326;2023-04-08T13:26:01;18.00;99.90
32348;DHT22;18821;44.800;10.326;2023-04-08T13:28:27;18.10;99.90
32348;DHT22;18821;44.800;10.326;2023-04-08T13:30:53;18.10;99.90
32348;DHT22;18821;44.800;10.326;2023-04-08T13:33:20;18.00;99.90
32348;DHT22;18821;44.800;10.326;2023-04-08T13:35:47;18.10;99.90
32348;DHT22;18821;44.800;10.326;2023-04-08T13:38:13;17.80;99.90
32348;DHT22;18821;44.800;10.326;2023-04-08T13:40:39;17.90;99.90
32348;DHT22;18821;44.800;10.326;2023-04-08T13:43:05;17.90;99.90
32348;DHT22;18821;44.800;10.326;2023-04-08T13:45:30;17.90;99.90
32348;DHT22;18821;44.800;10.326;2023-04-08T13:47:56;18.10;99.90
32348;DHT22;18821;44.800;10.326;2023-04-08T13:50:22;18.10;99.90
32348;DHT22;18821;44.800;10.326;2023-04-08T13:52:48;18.30;99.90
32348;DHT22;18821;44.800;10.326;2023-04-08T13:55:14;17.90;99.90
32348;DHT22;18821;44.800;10.326;2023-04-08T13:57:41;17.90;99.90
32348;DHT22;18821;44.800;10.326;2023-04-08T14:00:07;18.20;99.90
32348;DHT22;18821;44.800;10.326;2023-04-08T14:02:36;18.20;99.90
32348;DHT22;18821;44.800;10.326;2023-04-08T14:05:02;18.20;99.90
32348;DHT22;18821;44.800;10.326;2023-04-08T14:07:29;18.30;99.90
32348;DHT22;18821;44.800;10.326;2023-04-08T14:09:54;18.30;99.90
32348;DHT22;18821;44.800;10.326;2023-04-08T14:12:20;18.10;99.90
32348;DHT22;18821;44.800;10.326;2023-04-08T14:14:46;17.90;99.90
32348;DHT22;18821;44.800;10.326;2023-04-08T14:17:12;17.70;99.90
32348;DHT22;18821;44.800;10.326;2023-04-08T14:19:39;17.80;99.90
32348;DHT22;18821;44.800;10.326;2023-04-08T14:22:05;18.10;99.90
32348;DHT22;18821;44.800;10.326;2023-04-08T14:24:31;18.20;99.90
32348;DHT22;18821;44.800;10.326;2023-04-08T14:26:56;18.50;99.90
32348;DHT22;18821;44.800;10.326;2023-04-08T14:29:22;18.80;99.90
32348;DHT22;18821;44.800;10.326;2023-04-08T14:31:48;18.90;99.90
32348;DHT22;18821;44.800;10.326;2023-04-08T14:34:14;18.80;99.90
32348;DHT22;18821;44.800;10.326;2023-04-08T14:36:40;18.70;99.90
32348;DHT22;18821;44.800;10.326;2023-04-08T14:39:06;18.60;99.90
32348;DHT22;18821;44.800;10.326;2023-04-08T14:41:32;18.50;99.90
32348;DHT22;18821;44.800;10.326;2023-04-08T14:43:58;18.30;99.90
32348;DHT22;18821;44.800;10.326;2023-04-08T14:46:25;18.20;99.90
32348;DHT22;18821;44.800;10.326;2023-04-08T14:48:51;18.30;99.90
32348;DHT22;18821;44.800;10.326;2023-04-08T14:51:17;18.30;99.90
32348;DHT22;18821;44.800;10.326;2023-04-08T14:53:43;18.20;99.90
32348;DHT22;18821;44.800;10.326;2023-04-08T14:56:09;18.10;99.90
32348;DHT22;18821;44.800;10.326;2023-04-08T14:58:35;17.80;99.90
32348;DHT22;18821;44.800;10.326;2023-04-08T15:01:01;18.00;99.90
32348;DHT22;18821;44.800;10.326;2023-04-08T15:03:27;17.70;99.90
32348;DHT22;18821;44.800;10.326;2023-04-08T15:05:56;17.60;99.90
32348;DHT22;18821;44.800;10.326;2023-04-08T15:08:23;17.40;99.90
32348;DHT22;18821;44.800;10.326;2023-04-08T15:10:49;17.30;99.90
32348;DHT22;18821;44.800;10.326;2023-04-08T15:13:14;17.30;99.90
32348;DHT22;18821;44.800;10.326;2023-04-08T15:15:40;17.40;99.90
32348;DHT22;18821;44.800;10.326;2023-04-08T15:18:06;17.50;99.90
32348;DHT22;18821;44.800;10.326;2023-04-08T15:20:32;17.60;99.90
32348;DHT22;18821;44.800;10.326;2023-04-08T15:22:58;17.70;99.90
32348;DHT22;18821;44.800;10.326;2023-04-08T15:25:24;17.60;99.90
32348;DHT22;18821;44.800;10.326;2023-04-08T15:27:50;17.60;99.90
32348;DHT22;18821;44.800;10.326;2023-04-08T15:30:16;17.60;99.90
32348;DHT22;18821;44.800;10.326;2023-04-08T15:32:50;17.60;99.90
32348;DHT22;18821;44.800;10.326;2023-04-08T15:35:16;17.60;99.90
32348;DHT22;18821;44.800;10.326;2023-04-08T15:37:42;17.50;99.90
32348;DHT22;18821;44.800;10.326;2023-04-08T15:40:08;17.30;99.90
32348;DHT22;18821;44.800;10.326;2023-04-08T15:42:35;17.30;99.90
32348;DHT22;18821;44.800;10.326;2023-04-08T15:45:02;17.30;99.90
32348;DHT22;18821;44.800;10.326;2023-04-08T15:47:28;17.30;99.90
32348;DHT22;18821;44.800;10.326;2023-04-08T15:49:54;17.30;99.90